Retour à l'actu

LFPG

METAR

LFPG 270930Z 20015KT 9999 BKN011 BKN092 09/07 Q1008 TEMPO BKN008

TAF

LFPG 270500Z
  • | 2706/2812 22010KT 9999 BKN012 TX14/2812Z TN08/2706Z
  • | TEMPO 2706/2712 BKN008
  • | PROB30 TEMPO 2707/2711 BKN004
  • | TEMPO 2712/2716 BKN020
  • | TEMPO 2712/2721 18015G25KT 3000 RA BKN006
  • | BECMG 2721/2723 SCT030
  • | TEMPO 2722/2803 24015G25KT 4000 -SHRA SCT025TCU
  • | BECMG 2809/2811 22015G30KT